Time;durP1;ratioP1;P1;durP2;ratioP2;P2;SDS_P1;SDS_P2;PMS_P1;PMS_P2;Temp;Humidity;BMP_temperature;BMP_pressure;BME280_temperature;BME280_humidity;BME280_pressure;Samples;Min_cycle;Max_cycle;Signal;HPM_P1;HPM_P2
2023/01/24 00:00:41;;;;;;;15.70;9.67;;;;;;;1.75;92.60;101798.81;1458080;88;21583;-82
2023/01/24 00:03:11;;;;;;;19.17;10.93;;;;;;;1.72;92.75;101797.62;1472248;88;22665;-80
2023/01/24 00:05:36;;;;;;;20.53;12.43;;;;;;;1.74;92.63;101794.98;1474745;88;21676;-82
2023/01/24 00:08:02;;;;;;;15.10;8.90;;;;;;;1.72;92.68;101793.72;1464602;88;21737;-82
2023/01/24 00:10:29;;;;;;;12.67;8.17;;;;;;;1.68;92.84;101793.44;1475434;88;22538;-80
2023/01/24 00:12:55;;;;;;;14.73;9.83;;;;;;;1.66;93.08;101793.94;1463413;88;21616;-84
2023/01/24 00:15:21;;;;;;;19.60;10.63;;;;;;;1.62;93.21;101794.13;1470882;88;21621;-82
2023/01/24 00:17:48;;;;;;;12.20;8.23;;;;;;;1.53;93.69;101788.34;1463440;88;21700;-83
2023/01/24 00:20:15;;;;;;;13.43;8.87;;;;;;;1.53;93.69;101788.34;1477930;88;22881;-81
2023/01/24 00:22:42;;;;;;;14.90;7.90;;;;;;;1.56;93.82;101795.20;1476299;88;21663;-81
2023/01/24 00:25:08;;;;;;;13.97;8.97;;;;;;;1.60;93.04;101800.70;1473817;88;21517;-80
2023/01/24 00:27:35;;;;;;;18.10;8.83;;;;;;;1.61;92.65;101801.09;1472772;88;21730;-78
2023/01/24 00:30:04;;;;;;;12.83;8.57;;;;;;;1.53;92.85;101801.84;1470494;88;21634;-80
2023/01/24 00:32:30;;;;;;;17.47;9.33;;;;;;;1.46;93.49;101806.87;1468601;88;21556;-78
2023/01/24 00:34:57;;;;;;;11.17;7.27;;;;;;;1.46;93.04;101804.27;1465490;88;21709;-80
2023/01/24 00:37:24;;;;;;;10.67;7.57;;;;;;;1.44;93.50;101808.25;1468984;88;21656;-80
2023/01/24 00:39:50;;;;;;;13.73;8.17;;;;;;;1.41;94.12;101806.19;1472005;88;21719;-80
2023/01/24 00:42:16;;;;;;;13.13;8.03;;;;;;;1.41;93.72;101797.93;1469331;88;21636;-80
2023/01/24 00:44:42;;;;;;;15.47;8.97;;;;;;;1.40;93.63;101803.19;1471569;88;21847;-79
2023/01/24 00:47:09;;;;;;;16.37;9.63;;;;;;;1.38;93.54;101806.30;1465685;88;21636;-83
2023/01/24 00:49:35;;;;;;;13.43;9.47;;;;;;;1.37;93.35;101811.12;1473672;88;22713;-78
2023/01/24 00:52:02;;;;;;;11.33;8.30;;;;;;;1.34;93.77;101807.71;1472297;88;21479;-79
2023/01/24 00:54:28;;;;;;;11.07;7.73;;;;;;;1.31;94.21;101814.34;1473019;88;21623;-81
2023/01/24 00:56:54;;;;;;;11.23;7.73;;;;;;;1.33;93.89;101809.94;1473524;88;21801;-79
2023/01/24 00:59:20;;;;;;;10.30;7.17;;;;;;;1.32;94.34;101810.84;1477426;88;21672;-80
2023/01/24 01:01:47;;;;;;;14.30;8.50;;;;;;;1.27;95.09;101811.45;1474500;88;21791;-80
2023/01/24 01:04:13;;;;;;;11.37;8.03;;;;;;;1.30;95.03;101813.95;1456950;88;21596;-80
2023/01/24 01:06:39;;;;;;;12.07;7.87;;;;;;;1.32;94.63;101810.84;1470357;88;22388;-79
2023/01/24 01:09:06;;;;;;;17.10;10.07;;;;;;;1.32;94.48;101809.55;1472925;88;21724;-79
2023/01/24 01:11:32;;;;;;;10.77;7.03;;;;;;;1.34;94.04;101817.30;1470506;88;21501;-80
2023/01/24 01:13:58;;;;;;;13.10;8.07;;;;;;;1.35;93.81;101809.44;1469451;88;22610;-80
2023/01/24 01:16:25;;;;;;;10.67;7.37;;;;;;;1.37;94.00;101804.60;1471436;88;21774;-80
2023/01/24 01:18:54;;;;;;;13.37;7.27;;;;;;;1.40;94.04;101811.86;1477831;88;21825;-80
2023/01/24 01:21:23;;;;;;;11.40;7.47;;;;;;;1.41;93.97;101810.97;1478815;88;21605;-80
2023/01/24 01:23:49;;;;;;;10.83;7.60;;;;;;;1.37;94.89;101807.21;1473971;88;21603;-81
2023/01/24 01:26:20;;;;;;;12.67;8.77;;;;;;;1.41;94.67;101806.19;1472678;88;21671;-81
2023/01/24 01:28:46;;;;;;;11.43;7.33;;;;;;;1.40;95.16;101813.63;1475920;88;21582;-80
2023/01/24 01:31:13;;;;;;;10.80;8.07;;;;;;;1.39;95.35;101819.76;1468294;88;21530;-80
2023/01/24 01:33:39;;;;;;;12.30;7.53;;;;;;;1.44;94.96;101817.38;1471920;88;22723;-80
2023/01/24 01:36:07;;;;;;;12.60;7.63;;;;;;;1.44;94.99;101815.20;1474960;88;21644;-82
2023/01/24 01:38:33;;;;;;;12.10;7.70;;;;;;;1.46;94.92;101812.94;1464559;88;21672;-82
2023/01/24 01:40:59;;;;;;;14.37;9.13;;;;;;;1.48;94.75;101808.98;1459014;88;21604;-81
2023/01/24 01:43:30;;;;;;;9.73;6.63;;;;;;;1.46;94.95;101810.78;1469558;88;22106;-81
2023/01/24 01:46:20;;;;;;;11.83;8.00;;;;;;;1.46;95.01;101808.18;1471906;88;21797;-80
2023/01/24 01:48:53;;;;;;;14.60;7.27;;;;;;;1.46;95.27;101810.78;1467195;88;21694;-83
2023/01/24 01:51:33;;;;;;;10.23;7.47;;;;;;;1.48;95.04;101810.29;1471753;88;22476;-83
2023/01/24 01:54:08;;;;;;;11.03;7.67;;;;;;;1.52;95.00;101804.04;1475352;88;21689;-82
2023/01/24 01:57:01;;;;;;;11.23;8.07;;;;;;;1.54;94.77;101808.76;1471532;88;21853;-81
2023/01/24 01:59:33;;;;;;;11.90;7.30;;;;;;;1.51;94.93;101808.41;1478212;88;21744;-82
2023/01/24 02:02:01;;;;;;;11.83;6.60;;;;;;;1.49;95.11;101801.55;1472614;88;22116;-83
2023/01/24 02:04:32;;;;;;;10.93;6.23;;;;;;;1.49;95.17;101804.16;1471364;88;22713;-82
2023/01/24 02:07:09;;;;;;;12.03;7.17;;;;;;;1.52;95.14;101807.95;1465231;88;21843;-83
2023/01/24 02:09:42;;;;;;;12.27;8.03;;;;;;;1.52;95.21;101804.04;1473698;88;21376;-83
2023/01/24 02:12:40;;;;;;;12.30;7.93;;;;;;;1.54;94.96;101806.15;1480157;88;21714;-84
2023/01/24 02:17:59;;;;;;;11.23;6.70;;;;;;;1.52;95.33;101810.56;1464520;87;22697;-84
2023/01/24 02:20:45;;;;;;;8.13;6.13;;;;;;;1.55;95.08;101803.92;1466429;89;22865;-82
2023/01/24 02:23:32;;;;;;;19.37;8.77;;;;;;;1.56;95.24;101813.48;1479717;87;22620;-81
2023/01/24 02:26:09;;;;;;;9.77;6.97;;;;;;;1.57;95.30;101812.55;1465037;89;21827;-80
2023/01/24 02:28:37;;;;;;;13.20;7.60;;;;;;;1.56;95.17;101816.93;1439350;88;22545;-80
2023/01/24 02:31:05;;;;;;;12.03;7.93;;;;;;;1.53;95.45;101809.67;1466134;89;21932;-80
2023/01/24 02:33:33;;;;;;;11.83;7.43;;;;;;;1.52;95.78;101808.80;1424186;91;21867;-80
2023/01/24 02:36:24;;;;;;;12.43;7.70;;;;;;;1.50;95.73;101812.40;1435374;90;21622;-77
2023/01/24 02:39:10;;;;;;;11.67;7.47;;;;;;;1.52;95.82;101817.09;1426939;89;21688;-79
2023/01/24 02:41:50;;;;;;;8.60;7.00;;;;;;;1.56;95.51;101808.26;1438381;89;21807;-80
2023/01/24 02:45:05;;;;;;;10.77;7.10;;;;;;;1.56;95.39;101808.26;1468356;87;21617;-79
2023/01/24 02:47:37;;;;;;;10.07;6.57;;;;;;;1.54;95.44;101808.76;1460762;89;21789;-79
2023/01/24 02:50:06;;;;;;;10.80;7.60;;;;;;;1.54;95.56;101808.30;1465362;89;22693;-79
2023/01/24 02:55:18;;;;;;;15.90;9.57;;;;;;;1.54;95.66;101808.76;1441352;90;21732;-78
2023/01/24 03:00:29;;;;;;;16.57;9.00;;;;;;;1.55;95.32;101804.80;1449911;89;21543;-83
2023/01/24 03:02:55;;;;;;;14.93;8.37;;;;;;;1.53;95.38;101804.00;1462761;89;21641;-81
2023/01/24 03:05:21;;;;;;;11.10;6.73;;;;;;;1.54;95.50;101807.45;1462170;89;21433;-82
2023/01/24 03:07:47;;;;;;;15.17;8.00;;;;;;;1.53;95.63;101803.16;1429180;90;22466;-82
2023/01/24 03:10:18;;;;;;;11.93;7.23;;;;;;;1.49;95.79;101801.55;1433108;89;21636;-83
2023/01/24 03:34:50;;;;;;;12.17;7.80;;;;;;;1.59;95.69;101810.75;1470259;89;21610;-80
2023/01/24 03:39:53;;;;;;;10.03;6.83;;;;;;;1.62;95.71;101810.64;1473044;88;22511;-79
2023/01/24 03:39:59;;;;;;;8.20;5.53;;;;;;;1.60;95.84;101816.36;1469918;89;21716;-80
2023/01/24 03:42:28;;;;;;;10.17;6.37;;;;;;;1.65;95.67;101804.00;1451555;89;21689;-82
2023/01/24 03:44:54;;;;;;;9.90;5.70;;;;;;;1.69;95.34;101806.87;1467713;88;21584;-82
2023/01/24 03:47:21;;;;;;;10.67;7.03;;;;;;;1.74;94.99;101814.09;1466823;88;21932;-82
2023/01/24 03:52:33;;;;;;;12.23;7.13;;;;;;;1.76;94.70;101813.59;1464804;89;21608;-81
2023/01/24 03:55:01;;;;;;;10.93;6.50;;;;;;;1.75;94.66;101813.63;1451011;89;21752;-82
2023/01/24 03:57:28;;;;;;;10.20;5.60;;;;;;;1.74;94.93;101814.09;1466669;89;21573;-82
2023/01/24 03:59:54;;;;;;;7.53;5.13;;;;;;;1.75;94.96;101813.17;1471316;89;21575;-82
2023/01/24 04:02:22;;;;;;;10.93;5.47;;;;;;;1.78;94.89;101820.05;1469563;89;21660;-82
2023/01/24 04:07:33;;;;;;;11.80;7.63;;;;;;;1.87;94.36;101807.09;1458916;89;21714;-82
2023/01/24 04:09:59;;;;;;;13.07;8.07;;;;;;;1.86;94.37;101813.23;1469004;89;21748;-82
2023/01/24 04:12:26;;;;;;;14.37;8.67;;;;;;;1.85;94.36;101817.62;1471610;88;22535;-80
2023/01/24 04:14:52;;;;;;;11.03;6.57;;;;;;;1.83;94.50;101821.19;1456914;89;21714;-80
2023/01/24 04:17:18;;;;;;;10.20;5.90;;;;;;;1.83;94.64;101813.36;1472529;89;21551;-80
2023/01/24 04:19:45;;;;;;;9.70;5.93;;;;;;;1.86;94.43;101810.63;1467353;89;21656;-80
2023/01/24 04:22:11;;;;;;;12.33;6.60;;;;;;;1.85;94.43;101803.72;1464154;88;21658;-81
2023/01/24 04:24:37;;;;;;;9.90;7.00;;;;;;;1.83;94.51;101805.52;1468279;89;21663;-81
2023/01/24 04:27:03;;;;;;;11.73;7.10;;;;;;;1.84;94.63;101807.22;1466493;89;21676;-80
2023/01/24 04:29:29;;;;;;;8.37;5.57;;;;;;;1.86;94.49;101804.10;1471871;88;21649;-81
2023/01/24 04:31:56;;;;;;;7.77;5.30;;;;;;;1.85;94.33;101803.25;1470804;88;21579;-81
2023/01/24 04:34:22;;;;;;;10.13;6.40;;;;;;;1.88;94.11;101803.59;1463856;88;22588;-80
2023/01/24 04:36:48;;;;;;;10.60;6.77;;;;;;;1.92;94.02;101798.64;1466921;88;21735;-79
2023/01/24 04:39:14;;;;;;;11.30;6.30;;;;;;;1.91;94.02;101806.09;1470081;89;21536;-78
2023/01/24 04:41:41;;;;;;;12.80;6.20;;;;;;;1.91;93.92;101803.02;1468256;88;22485;-80
2023/01/24 04:44:07;;;;;;;11.07;6.23;;;;;;;1.88;94.08;101803.59;1468095;89;21810;-81
2023/01/24 04:46:33;;;;;;;10.93;5.60;;;;;;;1.84;94.50;101806.75;1469493;89;22520;-80
2023/01/24 04:49:00;;;;;;;13.97;7.40;;;;;;;1.81;94.64;101805.56;1461570;89;22686;-81
2023/01/24 04:51:26;;;;;;;12.10;6.70;;;;;;;1.83;94.45;101808.13;1461816;88;21469;-81
2023/01/24 04:53:52;;;;;;;6.93;4.73;;;;;;;1.86;94.25;101808.02;1444001;89;21503;-81
2023/01/24 04:56:19;;;;;;;9.83;6.30;;;;;;;1.86;94.49;101810.63;1459968;88;21908;-82
2023/01/24 04:58:45;;;;;;;11.47;6.83;;;;;;;1.89;94.14;101820.95;1470319;88;21838;-82
2023/01/24 05:01:11;;;;;;;11.87;7.47;;;;;;;1.84;94.33;101820.27;1462103;88;21776;-81
2023/01/24 05:03:38;;;;;;;17.73;7.83;;;;;;;1.83;94.11;101822.49;1466189;88;21766;-82
2023/01/24 05:06:05;;;;;;;10.67;6.73;;;;;;;1.77;94.34;101819.20;1462939;88;21647;-80
2023/01/24 05:08:31;;;;;;;11.67;6.87;;;;;;;1.75;94.25;101821.00;1469645;89;22426;-81
2023/01/24 05:11:03;;;;;;;8.80;5.37;;;;;;;1.72;94.64;101822.42;1456628;89;21586;-80
2023/01/24 05:13:29;;;;;;;9.30;5.80;;;;;;;1.76;94.37;101819.27;1472883;88;21595;-80
2023/01/24 05:15:55;;;;;;;10.43;6.23;;;;;;;1.78;94.25;101823.53;1448703;89;21882;-80
2023/01/24 05:18:21;;;;;;;12.00;6.67;;;;;;;1.78;94.29;101815.70;1467867;89;21538;-79
2023/01/24 05:20:48;;;;;;;13.47;8.00;;;;;;;1.80;94.22;101823.45;1463588;88;22365;-80
2023/01/24 05:23:14;;;;;;;11.27;7.77;;;;;;;1.79;94.37;101816.55;1462461;89;21602;-79
2023/01/24 05:25:40;;;;;;;12.10;6.43;;;;;;;1.78;94.10;101813.52;1473409;88;21661;-80
2023/01/24 05:28:07;;;;;;;10.17;6.33;;;;;;;1.75;94.27;101817.55;1470895;88;22430;-80
2023/01/24 05:30:33;;;;;;;11.43;5.90;;;;;;;1.70;94.71;101817.73;1472733;88;21699;-80
2023/01/24 05:32:59;;;;;;;9.47;5.50;;;;;;;1.71;94.74;101829.02;1471729;89;21561;-83
2023/01/24 05:35:25;;;;;;;10.33;6.27;;;;;;;1.72;94.64;101828.11;1475579;89;22402;-82
2023/01/24 05:37:51;;;;;;;8.20;5.07;;;;;;;1.73;94.82;101829.37;1472639;88;21632;-81
2023/01/24 05:40:17;;;;;;;12.73;7.63;;;;;;;1.74;94.83;101822.38;1467472;88;21732;-80
2023/01/24 05:42:44;;;;;;;11.43;6.73;;;;;;;1.78;94.47;101823.95;1474317;88;21557;-87
2023/01/24 05:45:12;;;;;;;9.40;6.13;;;;;;;1.78;94.55;101822.22;1458133;89;22605;-82
2023/01/24 05:47:39;;;;;;;11.40;7.43;;;;;;;1.78;94.70;101822.66;1464161;89;21639;-82
2023/01/24 05:50:05;;;;;;;11.00;5.90;;;;;;;1.77;94.47;101829.64;1466733;89;21626;-82
2023/01/24 05:52:32;;;;;;;10.63;6.23;;;;;;;1.75;94.79;101826.22;1470232;89;22439;-83
2023/01/24 05:54:58;;;;;;;11.53;6.10;;;;;;;1.77;94.57;101828.33;1473937;89;21909;-82
2023/01/24 05:57:24;;;;;;;9.60;5.90;;;;;;;1.78;94.66;101823.53;1466146;88;22578;-80
2023/01/24 05:59:50;;;;;;;9.57;5.90;;;;;;;1.82;94.51;101829.48;1465726;88;21715;-80
2023/01/24 06:02:18;;;;;;;10.30;6.03;;;;;;;1.86;94.35;101831.52;1469471;89;21629;-80
2023/01/24 06:04:44;;;;;;;12.70;7.27;;;;;;;1.88;94.16;101833.63;1462581;88;21382;-80
2023/01/24 06:07:10;;;;;;;9.53;6.50;;;;;;;1.92;94.08;101839.11;1472986;89;21865;-81
2023/01/24 06:09:36;;;;;;;10.40;6.17;;;;;;;1.88;94.26;101837.54;1453552;89;21625;-80
2023/01/24 06:12:03;;;;;;;11.20;6.20;;;;;;;1.88;94.23;101840.16;1462127;89;22675;-80
2023/01/24 06:14:29;;;;;;;11.97;5.30;;;;;;;1.90;94.31;101842.23;1473883;88;21873;-83
2023/01/24 06:16:55;;;;;;;7.83;4.73;;;;;;;1.89;94.38;101841.84;1471474;88;21724;-84
2023/01/24 06:19:22;;;;;;;12.10;5.43;;;;;;;1.94;94.12;101849.05;1446223;89;21719;-83
2023/01/24 06:22:18;;;;;;;7.47;4.97;;;;;;;1.96;94.19;101844.64;1466552;88;22473;-83
2023/01/24 06:24:45;;;;;;;7.53;5.33;;;;;;;2.00;93.88;101846.21;1466920;89;21781;-83
2023/01/24 06:27:12;;;;;;;12.37;6.37;;;;;;;2.00;93.92;101852.73;1465797;88;22163;-84
2023/01/24 06:29:38;;;;;;;15.27;6.90;;;;;;;2.02;93.80;101847.86;1460205;88;23269;-84
2023/01/24 06:32:19;;;;;;;12.30;6.17;;;;;;;2.03;93.66;101853.47;1460291;88;21719;-83
2023/01/24 06:35:09;;;;;;;9.43;5.17;;;;;;;2.03;93.68;101856.53;1463001;87;21921;-82
2023/01/24 06:37:52;;;;;;;8.47;5.17;;;;;;;2.02;93.96;101853.54;1468224;88;21477;-86
2023/01/24 06:40:25;;;;;;;8.27;4.73;;;;;;;2.01;93.97;101845.29;1467483;88;21815;-82
2023/01/24 06:42:52;;;;;;;8.97;4.83;;;;;;;2.04;93.97;101854.31;1467803;88;21625;-83
2023/01/24 06:45:19;;;;;;;27.80;10.87;;;;;;;2.09;93.83;101855.00;1456419;89;21843;-83
2023/01/24 06:47:47;;;;;;;17.97;11.10;;;;;;;2.13;93.70;101852.69;1462598;88;21892;-83
2023/01/24 06:50:17;;;;;;;60.03;42.83;;;;;;;2.15;93.55;101853.91;1464354;88;21777;-81
2023/01/24 06:52:48;;;;;;;69.60;35.67;;;;;;;2.17;93.44;101859.48;1453342;89;22637;-84
2023/01/24 06:55:15;;;;;;;77.62;46.35;;;;;;;2.19;93.45;101858.98;1470446;89;21706;-81
2023/01/24 06:57:41;;;;;;;95.63;55.23;;;;;;;2.19;93.48;101859.44;1464770;88;21264;-82
2023/01/24 07:00:09;;;;;;;130.03;87.37;;;;;;;2.18;93.52;101866.39;1465885;89;21855;-81
2023/01/24 07:02:35;;;;;;;35.67;22.63;;;;;;;2.22;93.51;101861.47;1466848;88;21870;-80
2023/01/24 07:05:01;;;;;;;49.47;29.90;;;;;;;2.28;93.51;101865.61;1453884;89;21678;-81
2023/01/24 07:07:28;;;;;;;21.60;12.10;;;;;;;2.32;93.29;101865.87;1465174;89;21862;-81
2023/01/24 07:09:54;;;;;;;26.20;17.23;;;;;;;2.38;93.09;101871.31;1469193;88;21706;-82
2023/01/24 07:12:20;;;;;;;22.87;13.33;;;;;;;2.44;92.98;101874.53;1457528;89;21834;-80
2023/01/24 07:14:47;;;;;;;13.60;7.63;;;;;;;2.49;92.83;101875.67;1465911;89;22023;-81
2023/01/24 07:17:13;;;;;;;12.73;8.40;;;;;;;2.53;92.51;101879.00;1462190;88;21692;-81
2023/01/24 07:19:40;;;;;;;22.03;11.90;;;;;;;2.53;92.51;101879.00;1467871;87;21651;-81
2023/01/24 07:22:14;;;;;;;8.30;5.87;;;;;;;2.55;92.43;101877.23;1468766;88;21832;-81
2023/01/24 07:24:42;;;;;;;9.67;5.07;;;;;;;2.64;92.21;101885.51;1454700;89;22168;-82
2023/01/24 07:27:09;;;;;;;9.60;5.47;;;;;;;2.64;92.21;101885.51;1466515;88;22077;-81
2023/01/24 07:29:35;;;;;;;8.47;4.87;;;;;;;2.77;91.73;101883.73;1469546;88;22777;-82
2023/01/24 07:32:02;;;;;;;9.87;5.33;;;;;;;2.77;91.73;101883.73;1461068;87;21879;-81
2023/01/24 07:34:28;;;;;;;9.33;5.80;;;;;;;2.84;91.51;101883.86;1474404;88;21432;-80
2023/01/24 07:36:54;;;;;;;15.17;8.97;;;;;;;2.88;90.86;101886.77;1468436;88;23486;-80
2023/01/24 07:39:20;;;;;;;10.43;6.03;;;;;;;2.96;90.77;101888.59;1464256;89;22072;-80
2023/01/24 07:41:46;;;;;;;9.80;5.40;;;;;;;2.96;90.77;101888.59;1470885;88;22021;-81
2023/01/24 07:44:14;;;;;;;8.33;4.97;;;;;;;2.99;90.54;101879.30;1463643;88;22021;-81
2023/01/24 07:46:40;;;;;;;8.53;5.43;;;;;;;2.99;90.54;101879.30;1466625;89;22198;-81
2023/01/24 07:49:07;;;;;;;10.80;6.53;;;;;;;3.08;90.26;101882.88;1468910;89;22147;-80
2023/01/24 07:51:33;;;;;;;9.83;5.13;;;;;;;3.16;90.47;101882.09;1467494;88;22039;-81
2023/01/24 07:53:59;;;;;;;11.43;4.73;;;;;;;3.20;90.37;101881.50;1469386;89;22272;-82
2023/01/24 07:56:26;;;;;;;11.27;5.83;;;;;;;3.26;90.15;101884.32;1470708;89;22123;-82
2023/01/24 07:58:53;;;;;;;12.53;7.03;;;;;;;3.36;90.10;101883.00;1467971;88;22213;-81
2023/01/24 08:01:26;;;;;;;11.03;6.37;;;;;;;3.43;89.62;101881.83;1469006;88;22057;-90
2023/01/24 08:03:57;;;;;;;11.00;5.77;;;;;;;3.49;89.22;101885.95;1474702;89;22229;-89
2023/01/24 08:06:25;;;;;;;26.30;9.73;;;;;;;3.55;89.04;101883.91;1462342;89;22295;-92
2023/01/24 08:08:53;;;;;;;39.50;16.80;;;;;;;3.64;88.67;101886.58;1464860;88;23183;-90
2023/01/24 08:11:19;;;;;;;50.73;19.83;;;;;;;3.70;88.41;101888.08;1451350;89;22230;-87
2023/01/24 08:13:46;;;;;;;23.27;10.73;;;;;;;3.92;87.92;101890.14;1453929;89;22115;-88
2023/01/24 08:16:13;;;;;;;19.43;9.63;;;;;;;3.92;87.92;101890.14;1465254;89;21426;-90
2023/01/24 08:18:40;;;;;;;13.03;5.73;;;;;;;3.98;87.67;101887.70;1463121;88;22034;-87
2023/01/24 08:21:07;;;;;;;11.77;5.40;;;;;;;4.05;87.36;101884.72;1470536;89;22890;-88
2023/01/24 08:23:34;;;;;;;11.23;6.60;;;;;;;4.12;86.41;101885.78;1468718;88;22246;-88
2023/01/24 08:26:01;;;;;;;8.80;5.23;;;;;;;4.21;86.62;101887.97;1470600;88;22192;-89
2023/01/24 08:28:29;;;;;;;10.90;6.00;;;;;;;4.24;86.27;101889.13;1466181;89;22417;-88
2023/01/24 08:30:57;;;;;;;13.00;6.17;;;;;;;4.31;85.88;101893.16;1470445;88;22192;-89
2023/01/24 08:33:24;;;;;;;10.73;5.37;;;;;;;4.45;85.52;101892.05;1463910;88;22095;-88
2023/01/24 08:35:50;;;;;;;9.97;6.20;;;;;;;4.45;85.52;101892.05;1451349;89;21581;-90
2023/01/24 08:38:16;;;;;;;8.07;4.97;;;;;;;4.69;84.85;101900.98;1466784;88;22819;-89
2023/01/24 08:40:43;;;;;;;9.23;6.07;;;;;;;4.69;84.85;101900.98;1465317;87;21419;-88
2023/01/24 08:43:10;;;;;;;16.83;10.37;;;;;;;4.80;84.43;101892.13;1469030;89;21367;-85
2023/01/24 08:45:37;;;;;;;8.63;4.93;;;;;;;4.96;84.19;101896.18;1449387;89;22688;-87
2023/01/24 08:48:04;;;;;;;8.37;5.00;;;;;;;5.06;82.70;101890.84;1466236;89;21373;-84
2023/01/24 08:50:30;;;;;;;10.47;6.27;;;;;;;5.21;82.76;101891.88;1475515;86;21316;-86
2023/01/24 08:52:57;;;;;;;14.13;5.63;;;;;;;5.26;82.16;101892.47;1475921;89;21381;-89
2023/01/24 08:55:24;;;;;;;11.27;5.10;;;;;;;5.42;82.50;101888.62;1465351;88;21425;-87
2023/01/24 08:57:51;;;;;;;10.77;5.17;;;;;;;5.49;80.52;101887.83;1463974;89;21403;-91
2023/01/24 09:00:18;;;;;;;19.60;11.57;;;;;;;5.60;79.03;101890.75;1465620;88;21537;-89
2023/01/24 09:02:45;;;;;;;8.10;4.70;;;;;;;5.78;80.83;101889.81;1469546;89;22136;-89
2023/01/24 09:05:11;;;;;;;6.30;4.50;;;;;;;5.97;79.65;101886.22;1462590;88;21448;-89
2023/01/24 09:07:38;;;;;;;9.37;4.77;;;;;;;6.02;78.15;101896.03;1467666;88;21566;-87
2023/01/24 09:10:06;;;;;;;8.87;5.20;;;;;;;6.06;76.88;101897.55;1468031;88;21404;-90
2023/01/24 09:12:32;;;;;;;11.13;5.60;;;;;;;6.16;76.84;101892.20;1466519;88;21374;-88
2023/01/24 09:14:58;;;;;;;16.67;8.40;;;;;;;6.21;77.55;101895.39;1466638;89;21566;-88
2023/01/24 09:17:25;;;;;;;67.20;30.70;;;;;;;6.32;77.12;101895.66;1467663;89;21477;-89
2023/01/24 09:19:51;;;;;;;22.13;11.17;;;;;;;6.53;78.50;101895.41;1463389;88;21447;-90
2023/01/24 09:22:18;;;;;;;87.83;39.13;;;;;;;6.64;76.45;101899.59;1464452;89;21382;-91
2023/01/24 09:24:44;;;;;;;9.67;5.60;;;;;;;6.81;77.89;101899.13;1467306;88;21565;-87
2023/01/24 09:27:11;;;;;;;6.47;4.70;;;;;;;6.73;75.38;101895.16;1468648;88;21381;-89
2023/01/24 09:29:37;;;;;;;13.53;6.30;;;;;;;6.69;74.47;101896.72;1466839;89;21403;-90
2023/01/24 09:32:03;;;;;;;10.03;5.47;;;;;;;6.76;74.79;101904.63;1468222;88;21389;-86
2023/01/24 09:34:30;;;;;;;18.17;8.93;;;;;;;6.72;74.51;101898.70;1466360;87;21426;-90
2023/01/24 09:36:56;;;;;;;11.03;6.23;;;;;;;6.87;75.49;101898.77;1452640;89;21389;-89
2023/01/24 09:39:22;;;;;;;48.27;21.53;;;;;;;6.90;76.11;101898.59;1450840;89;22366;-86
2023/01/24 09:42:06;;;;;;;139.10;62.93;;;;;;;7.08;76.93;101891.41;1461560;89;21315;-79
2023/01/24 09:44:55;;;;;;;63.23;29.70;;;;;;;7.27;75.19;101892.03;1465539;88;21433;-85
2023/01/24 09:47:50;;;;;;;11.87;7.00;;;;;;;7.56;76.41;101883.70;1467212;88;21581;-88
2023/01/24 09:50:27;;;;;;;16.13;8.50;;;;;;;7.54;72.93;101884.73;1466948;88;21650;-89
2023/01/24 09:52:58;;;;;;;17.93;10.87;;;;;;;7.81;72.64;101887.50;1449361;89;21588;-87
2023/01/24 09:55:41;;;;;;;20.23;11.95;;;;;;;8.43;72.32;101884.08;1468294;88;21374;-91
2023/01/24 09:58:31;;;;;;;19.70;12.00;;;;;;;9.31;69.58;101880.95;1464048;88;21473;-87
2023/01/24 10:01:09;;;;;;;14.07;7.80;;;;;;;9.99;65.13;101874.50;1468036;89;21390;-89
2023/01/24 10:03:37;;;;;;;29.80;17.37;;;;;;;9.83;63.21;101875.55;1467560;89;21383;-90
2023/01/24 10:06:20;;;;;;;44.93;25.30;;;;;;;10.20;63.94;101873.44;1467267;88;21418;-88
2023/01/24 10:09:27;;;;;;;48.23;28.60;;;;;;;9.85;64.78;101871.02;1470730;88;21455;-90
2023/01/24 10:12:08;;;;;;;74.93;42.47;;;;;;;9.52;67.08;101870.70;1464312;89;21629;-89
2023/01/24 10:14:44;;;;;;;;;;;;;;;9.70;64.40;101869.45;1457175;88;21426;-91
2023/01/24 10:17:37;;;;;;;28.77;17.23;;;;;;;10.38;62.43;101870.33;1445087;90;20849;-89
2023/01/24 10:20:31;;;;;;;10.17;6.67;;;;;;;10.57;61.42;101861.06;1396090;93;21427;-90
2023/01/24 10:23:06;;;;;;;9.30;4.43;;;;;;;10.74;62.71;101867.77;1377353;95;21754;-84
2023/01/24 10:26:04;;;;;;;8.37;5.87;;;;;;;10.58;60.62;101861.42;1379878;93;21474;-90
2023/01/24 10:28:38;;;;;;;7.50;4.73;;;;;;;10.58;62.21;101862.27;1375852;93;21673;-89
2023/01/24 10:31:27;;;;;;;6.70;4.30;;;;;;;10.61;61.10;101854.09;1375198;95;21488;-85
2023/01/24 10:34:01;;;;;;;5.50;3.33;;;;;;;10.45;60.42;101852.70;1380290;95;21459;-86
2023/01/24 10:37:10;;;;;;;5.70;3.90;;;;;;;10.27;60.50;101853.09;1378792;95;21495;-89
2023/01/24 10:39:37;;;;;;;5.53;3.60;;;;;;;10.43;61.65;101847.51;1379656;95;21444;-88
2023/01/24 10:42:24;;;;;;;6.90;3.67;;;;;;;10.27;61.33;101853.54;1378846;95;21392;-89
2023/01/24 10:44:53;;;;;;;5.03;3.10;;;;;;;10.74;61.81;101846.10;1377156;95;21400;-89
2023/01/24 10:48:03;;;;;;;32.57;22.80;;;;;;;10.39;61.00;101841.60;1377914;95;21481;-86
2023/01/24 10:50:44;;;;;;;13.37;8.97;;;;;;;10.94;60.74;101838.48;1375609;95;22472;-86
2023/01/24 10:53:27;;;;;;;18.23;12.60;;;;;;;11.27;60.64;101829.27;1376015;95;21451;-88
2023/01/24 10:56:03;;;;;;;8.53;6.50;;;;;;;11.59;60.55;101825.92;1379543;95;21606;-90
2023/01/24 10:59:01;;;;;;;5.87;4.40;;;;;;;11.69;59.88;101822.92;1412875;92;21473;-89
2023/01/24 11:01:38;;;;;;;4.00;2.93;;;;;;;10.93;59.32;101828.82;1464276;89;21484;-88
2023/01/24 11:04:24;;;;;;;9.60;5.73;;;;;;;10.50;60.21;101820.97;1467735;88;21293;-87
2023/01/24 11:06:51;;;;;;;6.10;3.67;;;;;;;10.54;60.92;101817.61;1466682;88;21418;-88
2023/01/24 11:09:24;;;;;;;6.00;3.47;;;;;;;10.64;61.03;101815.12;1467245;89;21444;-88
2023/01/24 11:11:57;;;;;;;4.37;3.50;;;;;;;10.87;60.40;101816.05;1466919;88;21441;-88
2023/01/24 11:14:36;;;;;;;10.70;5.60;;;;;;;10.76;60.21;101809.77;1466877;88;21433;-91
2023/01/24 11:17:02;;;;;;;7.80;4.67;;;;;;;10.77;60.88;101803.50;1465618;88;21775;-90
2023/01/24 11:19:32;;;;;;;7.57;5.20;;;;;;;10.82;60.71;101807.14;1450144;89;21930;-91
2023/01/24 11:22:04;;;;;;;12.03;4.93;;;;;;;11.00;60.38;101802.24;1465402;89;21329;-90
2023/01/24 11:24:30;;;;;;;10.80;5.20;;;;;;;11.26;61.13;101798.43;1464551;87;21359;-89
2023/01/24 11:27:16;;;;;;;12.37;3.77;;;;;;;11.59;60.47;101788.80;1465608;88;21601;-90
2023/01/24 11:29:42;;;;;;;7.87;3.63;;;;;;;11.62;59.60;101787.72;1514652;89;21308;-89
2023/01/24 11:32:38;;;;;;;5.07;3.23;;;;;;;11.60;59.37;101789.17;1392659;88;21479;-87
2023/01/24 11:35:19;;;;;;;6.30;4.10;;;;;;;11.35;59.62;101790.73;1508780;87;21433;-89
2023/01/24 11:38:24;;;;;;;4.97;3.03;;;;;;;10.98;60.32;101785.13;1550362;89;21286;-87
2023/01/24 11:41:10;;;;;;;7.37;4.57;;;;;;;10.69;60.33;101786.02;1546359;88;21270;-87
2023/01/24 11:44:00;;;;;;;8.73;6.50;;;;;;;10.85;60.97;101777.77;1551087;88;22012;-89
2023/01/24 11:47:05;;;;;;;9.57;7.77;;;;;;;11.12;61.55;101781.42;1503441;88;21579;-88
2023/01/24 11:50:08;;;;;;;28.87;17.60;;;;;;;11.37;60.97;101782.19;1429578;87;22336;-88
2023/01/24 11:52:52;;;;;;;48.37;27.63;;;;;;;11.56;60.32;101771.80;1411524;89;21264;-88
2023/01/24 11:55:35;;;;;;;30.20;18.67;;;;;;;11.55;59.98;101771.94;1413057;89;22162;-90
2023/01/24 11:58:25;;;;;;;32.63;19.27;;;;;;;11.34;59.49;101775.80;1368361;91;21328;-89
2023/01/24 12:01:16;;;;;;;9.33;5.57;;;;;;;11.06;59.64;101772.14;1496723;90;21402;-82
2023/01/24 12:03:57;;;;;;;9.38;4.67;;;;;;;10.52;60.86;101774.52;1439102;90;21722;-83
2023/01/24 12:06:35;;;;;;;;;;;;;;;10.37;64.35;101777.34;1446454;90;22635;-84
2023/01/24 12:09:16;;;;;;;11.33;6.47;;;;;;;10.20;65.90;101779.03;1442091;90;20429;-84
2023/01/24 12:12:14;;;;;;;8.20;5.60;;;;;;;9.97;65.29;101779.37;1439987;90;21512;-83
2023/01/24 12:15:07;;;;;;;14.77;9.63;;;;;;;9.78;64.66;101774.58;1445515;90;21439;-83
2023/01/24 12:18:06;;;;;;;6.37;4.53;;;;;;;9.58;66.17;101778.64;1436896;89;21579;-80
2023/01/24 12:21:10;;;;;;;9.67;4.50;;;;;;;9.30;66.57;101779.72;1443115;90;22982;-81
2023/01/24 12:23:48;;;;;;;10.50;6.63;;;;;;;9.19;67.20;101771.20;1442149;90;21448;-82